sensor_id;sensor_type;location;lat;lon;timestamp;P1;durP1;ratioP1;P2;durP2;ratioP2
4519;SDS011;2272;49.226;8.108;2023-01-10T00:01:38;1.43;;;1.20;;
4519;SDS011;2272;49.226;8.108;2023-01-10T00:04:04;0.97;;;0.90;;
4519;SDS011;2272;49.226;8.108;2023-01-10T00:06:31;2.03;;;0.83;;
4519;SDS011;2272;49.226;8.108;2023-01-10T00:08:58;0.50;;;0.50;;
4519;SDS011;2272;49.226;8.108;2023-01-10T00:11:24;0.93;;;0.90;;
4519;SDS011;2272;49.226;8.108;2023-01-10T00:14:10;0.60;;;0.60;;
4519;SDS011;2272;49.226;8.108;2023-01-10T00:16:36;1.23;;;0.80;;
4519;SDS011;2272;49.226;8.108;2023-01-10T00:19:04;0.70;;;0.70;;
4519;SDS011;2272;49.226;8.108;2023-01-10T00:21:32;0.80;;;0.80;;
4519;SDS011;2272;49.226;8.108;2023-01-10T00:23:59;0.80;;;0.80;;
4519;SDS011;2272;49.226;8.108;2023-01-10T00:26:41;0.67;;;0.67;;
4519;SDS011;2272;49.226;8.108;2023-01-10T00:29:12;1.13;;;0.90;;
4519;SDS011;2272;49.226;8.108;2023-01-10T00:31:40;0.80;;;0.80;;
4519;SDS011;2272;49.226;8.108;2023-01-10T00:34:07;0.90;;;0.60;;
4519;SDS011;2272;49.226;8.108;2023-01-10T00:36:34;0.70;;;0.70;;
4519;SDS011;2272;49.226;8.108;2023-01-10T00:39:00;1.17;;;1.10;;
4519;SDS011;2272;49.226;8.108;2023-01-10T00:41:31;0.90;;;0.80;;
4519;SDS011;2272;49.226;8.108;2023-01-10T00:44:17;1.40;;;0.70;;
4519;SDS011;2272;49.226;8.108;2023-01-10T00:46:44;0.73;;;0.60;;
4519;SDS011;2272;49.226;8.108;2023-01-10T00:49:10;0.60;;;0.60;;
4519;SDS011;2272;49.226;8.108;2023-01-10T00:51:40;0.60;;;0.60;;
4519;SDS011;2272;49.226;8.108;2023-01-10T00:54:07;0.70;;;0.70;;
4519;SDS011;2272;49.226;8.108;2023-01-10T00:56:34;0.60;;;0.60;;
4519;SDS011;2272;49.226;8.108;2023-01-10T00:59:00;0.97;;;0.97;;
4519;SDS011;2272;49.226;8.108;2023-01-10T01:01:29;0.70;;;0.70;;
4519;SDS011;2272;49.226;8.108;2023-01-10T01:03:55;0.73;;;0.60;;
4519;SDS011;2272;49.226;8.108;2023-01-10T01:06:23;0.83;;;0.70;;
4519;SDS011;2272;49.226;8.108;2023-01-10T01:08:50;0.80;;;0.70;;
4519;SDS011;2272;49.226;8.108;2023-01-10T01:11:16;1.43;;;0.80;;
4519;SDS011;2272;49.226;8.108;2023-01-10T01:13:43;0.70;;;0.70;;
4519;SDS011;2272;49.226;8.108;2023-01-10T01:16:10;0.93;;;0.83;;
4519;SDS011;2272;49.226;8.108;2023-01-10T01:18:37;1.27;;;1.10;;
4519;SDS011;2272;49.226;8.108;2023-01-10T01:21:04;0.93;;;0.90;;
4519;SDS011;2272;49.226;8.108;2023-01-10T01:23:32;1.00;;;0.80;;
4519;SDS011;2272;49.226;8.108;2023-01-10T01:26:00;1.57;;;0.80;;
4519;SDS011;2272;49.226;8.108;2023-01-10T01:28:27;1.07;;;0.70;;
4519;SDS011;2272;49.226;8.108;2023-01-10T01:30:54;1.67;;;0.90;;
4519;SDS011;2272;49.226;8.108;2023-01-10T01:33:20;0.90;;;0.77;;
4519;SDS011;2272;49.226;8.108;2023-01-10T01:35:48;2.60;;;0.80;;
4519;SDS011;2272;49.226;8.108;2023-01-10T01:38:15;0.97;;;0.87;;
4519;SDS011;2272;49.226;8.108;2023-01-10T01:40:43;0.87;;;0.80;;
4519;SDS011;2272;49.226;8.108;2023-01-10T01:43:17;1.47;;;1.10;;
4519;SDS011;2272;49.226;8.108;2023-01-10T01:45:47;1.40;;;0.80;;
4519;SDS011;2272;49.226;8.108;2023-01-10T01:48:16;4.20;;;1.20;;
4519;SDS011;2272;49.226;8.108;2023-01-10T01:50:49;6.07;;;1.47;;
4519;SDS011;2272;49.226;8.108;2023-01-10T01:53:22;2.40;;;1.30;;
4519;SDS011;2272;49.226;8.108;2023-01-10T01:55:52;5.03;;;1.30;;
4519;SDS011;2272;49.226;8.108;2023-01-10T01:58:23;2.37;;;1.33;;
4519;SDS011;2272;49.226;8.108;2023-01-10T02:00:53;2.70;;;1.70;;
4519;SDS011;2272;49.226;8.108;2023-01-10T02:03:22;2.47;;;1.57;;
4519;SDS011;2272;49.226;8.108;2023-01-10T02:05:50;6.30;;;1.70;;
4519;SDS011;2272;49.226;8.108;2023-01-10T02:08:18;1.30;;;1.00;;
4519;SDS011;2272;49.226;8.108;2023-01-10T02:10:45;2.50;;;1.60;;
4519;SDS011;2272;49.226;8.108;2023-01-10T02:13:18;3.87;;;1.80;;
4519;SDS011;2272;49.226;8.108;2023-01-10T02:15:48;2.17;;;1.97;;
4519;SDS011;2272;49.226;8.108;2023-01-10T02:18:15;4.73;;;1.63;;
4519;SDS011;2272;49.226;8.108;2023-01-10T02:20:52;2.27;;;1.40;;
4519;SDS011;2272;49.226;8.108;2023-01-10T02:26:37;3.60;;;1.77;;
4519;SDS011;2272;49.226;8.108;2023-01-10T02:29:22;1.83;;;1.40;;
4519;SDS011;2272;49.226;8.108;2023-01-10T02:32:20;2.10;;;1.50;;
4519;SDS011;2272;49.226;8.108;2023-01-10T02:34:58;1.93;;;1.50;;
4519;SDS011;2272;49.226;8.108;2023-01-10T02:37:34;7.63;;;1.90;;
4519;SDS011;2272;49.226;8.108;2023-01-10T02:40:10;4.77;;;2.00;;
4519;SDS011;2272;49.226;8.108;2023-01-10T02:42:44;4.50;;;1.47;;
4519;SDS011;2272;49.226;8.108;2023-01-10T02:45:15;10.70;;;1.97;;
4519;SDS011;2272;49.226;8.108;2023-01-10T02:47:46;1.73;;;1.60;;
4519;SDS011;2272;49.226;8.108;2023-01-10T02:50:22;4.73;;;1.20;;
4519;SDS011;2272;49.226;8.108;2023-01-10T02:52:55;4.57;;;1.70;;
4519;SDS011;2272;49.226;8.108;2023-01-10T02:55:25;12.43;;;1.90;;
4519;SDS011;2272;49.226;8.108;2023-01-10T02:58:03;3.20;;;1.70;;
4519;SDS011;2272;49.226;8.108;2023-01-10T03:00:40;1.63;;;1.53;;
4519;SDS011;2272;49.226;8.108;2023-01-10T03:03:18;9.27;;;1.60;;
4519;SDS011;2272;49.226;8.108;2023-01-10T03:06:00;2.40;;;1.63;;
4519;SDS011;2272;49.226;8.108;2023-01-10T03:08:34;2.10;;;1.20;;
4519;SDS011;2272;49.226;8.108;2023-01-10T03:11:05;1.47;;;1.30;;
4519;SDS011;2272;49.226;8.108;2023-01-10T03:13:35;6.17;;;2.20;;
4519;SDS011;2272;49.226;8.108;2023-01-10T03:16:06;2.97;;;1.50;;
4519;SDS011;2272;49.226;8.108;2023-01-10T03:18:37;3.00;;;1.63;;
4519;SDS011;2272;49.226;8.108;2023-01-10T03:21:08;1.83;;;1.63;;
4519;SDS011;2272;49.226;8.108;2023-01-10T03:23:36;3.33;;;2.23;;
4519;SDS011;2272;49.226;8.108;2023-01-10T03:26:04;21.33;;;1.90;;
4519;SDS011;2272;49.226;8.108;2023-01-10T03:28:32;4.03;;;2.00;;
4519;SDS011;2272;49.226;8.108;2023-01-10T03:31:05;4.80;;;1.97;;
4519;SDS011;2272;49.226;8.108;2023-01-10T03:33:36;3.43;;;1.80;;
4519;SDS011;2272;49.226;8.108;2023-01-10T03:36:07;2.27;;;2.07;;
4519;SDS011;2272;49.226;8.108;2023-01-10T03:38:42;9.07;;;2.47;;
4519;SDS011;2272;49.226;8.108;2023-01-10T03:41:12;3.23;;;1.87;;
4519;SDS011;2272;49.226;8.108;2023-01-10T03:43:43;5.50;;;1.73;;
4519;SDS011;2272;49.226;8.108;2023-01-10T03:46:32;3.00;;;2.20;;
4519;SDS011;2272;49.226;8.108;2023-01-10T03:49:05;10.90;;;6.70;;
4519;SDS011;2272;49.226;8.108;2023-01-10T03:51:34;46.80;;;27.37;;
4519;SDS011;2272;49.226;8.108;2023-01-10T03:54:03;46.90;;;29.30;;
4519;SDS011;2272;49.226;8.108;2023-01-10T03:56:30;31.37;;;18.57;;
4519;SDS011;2272;49.226;8.108;2023-01-10T03:58:56;20.77;;;14.17;;
4519;SDS011;2272;49.226;8.108;2023-01-10T04:01:23;22.30;;;11.93;;
4519;SDS011;2272;49.226;8.108;2023-01-10T04:03:51;22.80;;;14.37;;
4519;SDS011;2272;49.226;8.108;2023-01-10T04:06:19;16.73;;;10.40;;
4519;SDS011;2272;49.226;8.108;2023-01-10T04:08:45;20.37;;;8.77;;
4519;SDS011;2272;49.226;8.108;2023-01-10T04:11:12;14.40;;;5.70;;
4519;SDS011;2272;49.226;8.108;2023-01-10T04:13:39;11.37;;;6.07;;
4519;SDS011;2272;49.226;8.108;2023-01-10T04:16:06;7.50;;;3.73;;
4519;SDS011;2272;49.226;8.108;2023-01-10T04:18:33;17.00;;;5.00;;
4519;SDS011;2272;49.226;8.108;2023-01-10T04:21:00;17.43;;;9.30;;
4519;SDS011;2272;49.226;8.108;2023-01-10T04:23:28;31.67;;;19.87;;
4519;SDS011;2272;49.226;8.108;2023-01-10T04:25:54;14.17;;;11.03;;
4519;SDS011;2272;49.226;8.108;2023-01-10T04:28:21;16.53;;;8.30;;
4519;SDS011;2272;49.226;8.108;2023-01-10T04:30:48;14.27;;;7.87;;
4519;SDS011;2272;49.226;8.108;2023-01-10T04:33:15;23.37;;;6.87;;
4519;SDS011;2272;49.226;8.108;2023-01-10T04:35:45;14.90;;;6.57;;
4519;SDS011;2272;49.226;8.108;2023-01-10T04:38:12;15.03;;;5.33;;
4519;SDS011;2272;49.226;8.108;2023-01-10T04:40:41;9.20;;;3.90;;
4519;SDS011;2272;49.226;8.108;2023-01-10T04:43:08;8.20;;;4.07;;
4519;SDS011;2272;49.226;8.108;2023-01-10T04:45:35;15.80;;;6.07;;
4519;SDS011;2272;49.226;8.108;2023-01-10T04:48:02;29.57;;;8.27;;
4519;SDS011;2272;49.226;8.108;2023-01-10T04:50:29;16.30;;;8.17;;
4519;SDS011;2272;49.226;8.108;2023-01-10T04:52:56;25.43;;;9.80;;
4519;SDS011;2272;49.226;8.108;2023-01-10T04:55:22;27.10;;;12.80;;
4519;SDS011;2272;49.226;8.108;2023-01-10T04:57:50;28.90;;;16.43;;
4519;SDS011;2272;49.226;8.108;2023-01-10T05:00:17;24.87;;;12.97;;
4519;SDS011;2272;49.226;8.108;2023-01-10T05:02:44;24.60;;;10.83;;
4519;SDS011;2272;49.226;8.108;2023-01-10T05:05:11;23.40;;;7.40;;
4519;SDS011;2272;49.226;8.108;2023-01-10T05:07:38;23.00;;;9.77;;
4519;SDS011;2272;49.226;8.108;2023-01-10T05:10:06;35.63;;;8.17;;
4519;SDS011;2272;49.226;8.108;2023-01-10T05:12:34;20.33;;;4.60;;
4519;SDS011;2272;49.226;8.108;2023-01-10T05:15:02;9.33;;;5.97;;
4519;SDS011;2272;49.226;8.108;2023-01-10T05:17:29;23.27;;;4.60;;
4519;SDS011;2272;49.226;8.108;2023-01-10T05:19:56;21.80;;;6.17;;
4519;SDS011;2272;49.226;8.108;2023-01-10T05:22:22;22.03;;;6.20;;
4519;SDS011;2272;49.226;8.108;2023-01-10T05:24:49;16.17;;;5.40;;
4519;SDS011;2272;49.226;8.108;2023-01-10T05:27:16;8.93;;;4.77;;
4519;SDS011;2272;49.226;8.108;2023-01-10T05:29:42;22.43;;;4.93;;
4519;SDS011;2272;49.226;8.108;2023-01-10T05:32:10;15.80;;;8.37;;
4519;SDS011;2272;49.226;8.108;2023-01-10T05:34:37;10.90;;;5.10;;
4519;SDS011;2272;49.226;8.108;2023-01-10T05:37:04;15.47;;;4.37;;
4519;SDS011;2272;49.226;8.108;2023-01-10T05:39:30;16.33;;;4.30;;
4519;SDS011;2272;49.226;8.108;2023-01-10T05:41:57;15.13;;;5.10;;
4519;SDS011;2272;49.226;8.108;2023-01-10T05:44:24;13.60;;;4.40;;
4519;SDS011;2272;49.226;8.108;2023-01-10T05:46:51;13.93;;;3.73;;
4519;SDS011;2272;49.226;8.108;2023-01-10T05:49:19;9.20;;;4.17;;
4519;SDS011;2272;49.226;8.108;2023-01-10T05:51:45;21.37;;;5.57;;
4519;SDS011;2272;49.226;8.108;2023-01-10T05:54:12;15.63;;;4.53;;
4519;SDS011;2272;49.226;8.108;2023-01-10T05:56:39;17.80;;;5.50;;
4519;SDS011;2272;49.226;8.108;2023-01-10T05:59:06;23.83;;;7.23;;
4519;SDS011;2272;49.226;8.108;2023-01-10T06:01:33;28.83;;;5.43;;
4519;SDS011;2272;49.226;8.108;2023-01-10T06:04:00;19.17;;;5.20;;
4519;SDS011;2272;49.226;8.108;2023-01-10T06:06:28;13.30;;;3.73;;
4519;SDS011;2272;49.226;8.108;2023-01-10T06:08:54;19.40;;;7.27;;
4519;SDS011;2272;49.226;8.108;2023-01-10T06:11:23;12.80;;;5.80;;
4519;SDS011;2272;49.226;8.108;2023-01-10T06:13:53;7.70;;;3.40;;
4519;SDS011;2272;49.226;8.108;2023-01-10T06:16:20;23.17;;;5.10;;
4519;SDS011;2272;49.226;8.108;2023-01-10T06:18:47;18.77;;;7.37;;
4519;SDS011;2272;49.226;8.108;2023-01-10T06:21:14;16.43;;;4.50;;
4519;SDS011;2272;49.226;8.108;2023-01-10T06:23:42;12.80;;;5.20;;
4519;SDS011;2272;49.226;8.108;2023-01-10T06:26:08;10.23;;;4.20;;
4519;SDS011;2272;49.226;8.108;2023-01-10T06:28:35;10.53;;;3.70;;
4519;SDS011;2272;49.226;8.108;2023-01-10T06:31:02;20.20;;;5.50;;
4519;SDS011;2272;49.226;8.108;2023-01-10T06:33:29;25.17;;;5.77;;
4519;SDS011;2272;49.226;8.108;2023-01-10T06:35:55;21.40;;;7.00;;
4519;SDS011;2272;49.226;8.108;2023-01-10T06:38:22;22.50;;;8.23;;
4519;SDS011;2272;49.226;8.108;2023-01-10T06:40:50;15.77;;;7.43;;
4519;SDS011;2272;49.226;8.108;2023-01-10T06:43:16;13.50;;;5.40;;
4519;SDS011;2272;49.226;8.108;2023-01-10T06:45:43;12.63;;;4.50;;
4519;SDS011;2272;49.226;8.108;2023-01-10T06:48:10;12.97;;;3.30;;
4519;SDS011;2272;49.226;8.108;2023-01-10T06:50:36;8.77;;;3.40;;
4519;SDS011;2272;49.226;8.108;2023-01-10T06:53:03;8.33;;;2.90;;
4519;SDS011;2272;49.226;8.108;2023-01-10T06:55:30;14.70;;;3.23;;
4519;SDS011;2272;49.226;8.108;2023-01-10T06:57:58;11.63;;;2.97;;
4519;SDS011;2272;49.226;8.108;2023-01-10T07:00:27;9.90;;;3.10;;
4519;SDS011;2272;49.226;8.108;2023-01-10T07:02:55;17.47;;;5.40;;
4519;SDS011;2272;49.226;8.108;2023-01-10T07:05:23;9.60;;;4.00;;
4519;SDS011;2272;49.226;8.108;2023-01-10T07:07:50;6.77;;;3.07;;
4519;SDS011;2272;49.226;8.108;2023-01-10T07:10:17;5.53;;;3.10;;
4519;SDS011;2272;49.226;8.108;2023-01-10T07:12:43;9.33;;;4.40;;
4519;SDS011;2272;49.226;8.108;2023-01-10T07:15:11;16.67;;;5.10;;
4519;SDS011;2272;49.226;8.108;2023-01-10T07:17:38;18.03;;;4.57;;
4519;SDS011;2272;49.226;8.108;2023-01-10T07:20:05;3.63;;;2.80;;
4519;SDS011;2272;49.226;8.108;2023-01-10T07:22:33;7.97;;;4.77;;
4519;SDS011;2272;49.226;8.108;2023-01-10T07:24:59;15.00;;;3.10;;
4519;SDS011;2272;49.226;8.108;2023-01-10T07:27:26;11.27;;;3.30;;
4519;SDS011;2272;49.226;8.108;2023-01-10T07:29:55;11.60;;;3.73;;
4519;SDS011;2272;49.226;8.108;2023-01-10T07:32:23;5.43;;;2.97;;
4519;SDS011;2272;49.226;8.108;2023-01-10T07:34:50;8.20;;;3.97;;
4519;SDS011;2272;49.226;8.108;2023-01-10T07:37:17;13.77;;;3.93;;
4519;SDS011;2272;49.226;8.108;2023-01-10T07:39:43;11.87;;;3.37;;
4519;SDS011;2272;49.226;8.108;2023-01-10T07:42:10;10.70;;;3.90;;
4519;SDS011;2272;49.226;8.108;2023-01-10T07:44:37;6.00;;;3.23;;
4519;SDS011;2272;49.226;8.108;2023-01-10T07:47:03;20.27;;;3.60;;
4519;SDS011;2272;49.226;8.108;2023-01-10T07:49:31;3.23;;;2.10;;
4519;SDS011;2272;49.226;8.108;2023-01-10T07:51:58;10.73;;;3.57;;
4519;SDS011;2272;49.226;8.108;2023-01-10T07:54:25;3.27;;;2.17;;
4519;SDS011;2272;49.226;8.108;2023-01-10T07:56:51;17.30;;;3.50;;
4519;SDS011;2272;49.226;8.108;2023-01-10T07:59:18;16.03;;;3.77;;
4519;SDS011;2272;49.226;8.108;2023-01-10T08:01:44;5.10;;;3.63;;
4519;SDS011;2272;49.226;8.108;2023-01-10T08:04:12;7.60;;;3.13;;
4519;SDS011;2272;49.226;8.108;2023-01-10T08:06:40;8.27;;;3.10;;
4519;SDS011;2272;49.226;8.108;2023-01-10T08:09:07;8.53;;;3.97;;
4519;SDS011;2272;49.226;8.108;2023-01-10T08:11:33;3.70;;;2.70;;
4519;SDS011;2272;49.226;8.108;2023-01-10T08:14:00;11.00;;;3.60;;
4519;SDS011;2272;49.226;8.108;2023-01-10T08:16:27;9.33;;;2.43;;
4519;SDS011;2272;49.226;8.108;2023-01-10T08:18:53;16.30;;;3.90;;
4519;SDS011;2272;49.226;8.108;2023-01-10T08:21:20;15.07;;;6.80;;
4519;SDS011;2272;49.226;8.108;2023-01-10T08:23:48;19.17;;;5.17;;
4519;SDS011;2272;49.226;8.108;2023-01-10T08:26:15;12.50;;;3.60;;
4519;SDS011;2272;49.226;8.108;2023-01-10T08:28:42;17.70;;;3.33;;
4519;SDS011;2272;49.226;8.108;2023-01-10T08:31:09;25.57;;;5.40;;
4519;SDS011;2272;49.226;8.108;2023-01-10T08:33:36;15.00;;;3.87;;
4519;SDS011;2272;49.226;8.108;2023-01-10T08:36:04;13.00;;;4.57;;
4519;SDS011;2272;49.226;8.108;2023-01-10T08:38:31;14.57;;;4.67;;
4519;SDS011;2272;49.226;8.108;2023-01-10T08:40:59;7.77;;;3.43;;
4519;SDS011;2272;49.226;8.108;2023-01-10T08:43:26;15.70;;;3.30;;
4519;SDS011;2272;49.226;8.108;2023-01-10T08:45:52;18.63;;;3.07;;
4519;SDS011;2272;49.226;8.108;2023-01-10T08:48:19;11.43;;;2.90;;
4519;SDS011;2272;49.226;8.108;2023-01-10T08:50:46;17.03;;;5.23;;
4519;SDS011;2272;49.226;8.108;2023-01-10T08:53:12;10.00;;;3.67;;
4519;SDS011;2272;49.226;8.108;2023-01-10T08:55:39;11.33;;;3.97;;
4519;SDS011;2272;49.226;8.108;2023-01-10T08:58:07;22.90;;;4.23;;
4519;SDS011;2272;49.226;8.108;2023-01-10T09:00:35;10.87;;;5.13;;
4519;SDS011;2272;49.226;8.108;2023-01-10T09:03:04;14.53;;;3.67;;
4519;SDS011;2272;49.226;8.108;2023-01-10T09:05:31;14.50;;;3.97;;
4519;SDS011;2272;49.226;8.108;2023-01-10T09:07:57;14.27;;;3.47;;
4519;SDS011;2272;49.226;8.108;2023-01-10T09:10:25;22.67;;;5.43;;
4519;SDS011;2272;49.226;8.108;2023-01-10T09:12:52;9.10;;;3.73;;
4519;SDS011;2272;49.226;8.108;2023-01-10T09:15:25;16.77;;;4.83;;
4519;SDS011;2272;49.226;8.108;2023-01-10T09:17:53;16.40;;;4.70;;
4519;SDS011;2272;49.226;8.108;2023-01-10T09:20:21;12.93;;;4.47;;
4519;SDS011;2272;49.226;8.108;2023-01-10T09:22:48;20.40;;;5.20;;
4519;SDS011;2272;49.226;8.108;2023-01-10T09:25:15;18.17;;;6.07;;
4519;SDS011;2272;49.226;8.108;2023-01-10T09:27:42;16.60;;;5.40;;
4519;SDS011;2272;49.226;8.108;2023-01-10T09:30:09;34.80;;;7.53;;
4519;SDS011;2272;49.226;8.108;2023-01-10T09:32:38;29.17;;;8.37;;
4519;SDS011;2272;49.226;8.108;2023-01-10T09:35:04;31.67;;;8.20;;
4519;SDS011;2272;49.226;8.108;2023-01-10T09:37:31;24.40;;;8.20;;
4519;SDS011;2272;49.226;8.108;2023-01-10T09:39:58;22.30;;;5.33;;
4519;SDS011;2272;49.226;8.108;2023-01-10T09:42:50;21.97;;;6.30;;
4519;SDS011;2272;49.226;8.108;2023-01-10T09:45:30;18.27;;;7.20;;
4519;SDS011;2272;49.226;8.108;2023-01-10T09:48:05;22.63;;;5.20;;
4519;SDS011;2272;49.226;8.108;2023-01-10T09:50:39;19.17;;;7.10;;
4519;SDS011;2272;49.226;8.108;2023-01-10T09:53:17;24.97;;;4.67;;
4519;SDS011;2272;49.226;8.108;2023-01-10T09:55:47;20.80;;;4.90;;
4519;SDS011;2272;49.226;8.108;2023-01-10T09:58:18;20.60;;;5.20;;
4519;SDS011;2272;49.226;8.108;2023-01-10T10:00:52;8.63;;;3.07;;
4519;SDS011;2272;49.226;8.108;2023-01-10T10:03:24;20.20;;;4.77;;
4519;SDS011;2272;49.226;8.108;2023-01-10T10:05:56;16.73;;;6.33;;
4519;SDS011;2272;49.226;8.108;2023-01-10T10:08:23;15.80;;;5.17;;
4519;SDS011;2272;49.226;8.108;2023-01-10T10:10:57;15.27;;;5.83;;
4519;SDS011;2272;49.226;8.108;2023-01-10T10:13:32;17.10;;;5.13;;
4519;SDS011;2272;49.226;8.108;2023-01-10T10:16:12;12.80;;;4.23;;
4519;SDS011;2272;49.226;8.108;2023-01-10T10:18:52;24.17;;;5.50;;
4519;SDS011;2272;49.226;8.108;2023-01-10T10:21:27;15.53;;;5.33;;
4519;SDS011;2272;49.226;8.108;2023-01-10T10:24:12;16.33;;;6.13;;
4519;SDS011;2272;49.226;8.108;2023-01-10T10:26:48;14.30;;;5.23;;
4519;SDS011;2272;49.226;8.108;2023-01-10T10:29:24;22.03;;;5.00;;
4519;SDS011;2272;49.226;8.108;2023-01-10T10:32:24;12.17;;;5.40;;
4519;SDS011;2272;49.226;8.108;2023-01-10T10:35:06;18.00;;;4.23;;
4519;SDS011;2272;49.226;8.108;2023-01-10T10:37:39;16.87;;;5.17;;
4519;SDS011;2272;49.226;8.108;2023-01-10T10:40:14;17.87;;;4.57;;
4519;SDS011;2272;49.226;8.108;2023-01-10T10:42:44;22.57;;;5.20;;
4519;SDS011;2272;49.226;8.108;2023-01-10T10:45:14;21.57;;;5.00;;
4519;SDS011;2272;49.226;8.108;2023-01-10T10:47:45;16.90;;;4.90;;
4519;SDS011;2272;49.226;8.108;2023-01-10T10:50:20;15.13;;;4.83;;
4519;SDS011;2272;49.226;8.108;2023-01-10T10:52:55;13.50;;;4.27;;
4519;SDS011;2272;49.226;8.108;2023-01-10T10:55:27;25.03;;;6.03;;
4519;SDS011;2272;49.226;8.108;2023-01-10T10:57:56;20.73;;;5.63;;
4519;SDS011;2272;49.226;8.108;2023-01-10T11:00:23;15.57;;;6.13;;
4519;SDS011;2272;49.226;8.108;2023-01-10T11:02:52;18.10;;;6.70;;
4519;SDS011;2272;49.226;8.108;2023-01-10T11:05:27;34.30;;;5.60;;
4519;SDS011;2272;49.226;8.108;2023-01-10T11:08:02;39.07;;;4.70;;
4519;SDS011;2272;49.226;8.108;2023-01-10T11:10:33;16.77;;;6.03;;
4519;SDS011;2272;49.226;8.108;2023-01-10T11:13:01;14.93;;;4.53;;
4519;SDS011;2272;49.226;8.108;2023-01-10T11:15:34;29.87;;;7.10;;
4519;SDS011;2272;49.226;8.108;2023-01-10T11:18:03;15.80;;;5.07;;
4519;SDS011;2272;49.226;8.108;2023-01-10T11:20:32;28.00;;;4.70;;
4519;SDS011;2272;49.226;8.108;2023-01-10T11:22:59;21.90;;;4.40;;
4519;SDS011;2272;49.226;8.108;2023-01-10T11:25:26;10.47;;;4.17;;
4519;SDS011;2272;49.226;8.108;2023-01-10T11:27:54;23.23;;;5.03;;
4519;SDS011;2272;49.226;8.108;2023-01-10T11:30:23;15.80;;;4.23;;
4519;SDS011;2272;49.226;8.108;2023-01-10T11:32:52;19.47;;;3.93;;
4519;SDS011;2272;49.226;8.108;2023-01-10T11:35:23;18.63;;;3.90;;
4519;SDS011;2272;49.226;8.108;2023-01-10T11:38:00;19.23;;;4.73;;
4519;SDS011;2272;49.226;8.108;2023-01-10T11:40:28;21.13;;;3.97;;
4519;SDS011;2272;49.226;8.108;2023-01-10T11:42:56;12.20;;;3.50;;
4519;SDS011;2272;49.226;8.108;2023-01-10T11:45:28;11.73;;;3.73;;
4519;SDS011;2272;49.226;8.108;2023-01-10T11:47:58;13.10;;;3.67;;
4519;SDS011;2272;49.226;8.108;2023-01-10T11:50:32;19.97;;;5.63;;
4519;SDS011;2272;49.226;8.108;2023-01-10T11:53:02;17.67;;;5.27;;
4519;SDS011;2272;49.226;8.108;2023-01-10T11:55:31;15.37;;;3.60;;
4519;SDS011;2272;49.226;8.108;2023-01-10T11:58:02;14.37;;;3.60;;
4519;SDS011;2272;49.226;8.108;2023-01-10T12:00:36;8.20;;;3.20;;
4519;SDS011;2272;49.226;8.108;2023-01-10T12:03:15;23.70;;;3.57;;
4519;SDS011;2272;49.226;8.108;2023-01-10T12:05:49;23.60;;;3.57;;
4519;SDS011;2272;49.226;8.108;2023-01-10T12:08:24;17.37;;;5.80;;
4519;SDS011;2272;49.226;8.108;2023-01-10T12:10:59;31.83;;;6.50;;
4519;SDS011;2272;49.226;8.108;2023-01-10T12:13:30;8.13;;;3.10;;
4519;SDS011;2272;49.226;8.108;2023-01-10T12:16:13;14.40;;;4.70;;
4519;SDS011;2272;49.226;8.108;2023-01-10T12:18:46;19.27;;;5.97;;
4519;SDS011;2272;49.226;8.108;2023-01-10T12:21:15;31.30;;;8.80;;
4519;SDS011;2272;49.226;8.108;2023-01-10T12:23:46;24.10;;;6.00;;
4519;SDS011;2272;49.226;8.108;2023-01-10T12:26:15;29.63;;;7.63;;
4519;SDS011;2272;49.226;8.108;2023-01-10T12:28:43;27.03;;;7.20;;
4519;SDS011;2272;49.226;8.108;2023-01-10T12:31:16;18.23;;;5.80;;
4519;SDS011;2272;49.226;8.108;2023-01-10T12:33:48;18.00;;;3.60;;
4519;SDS011;2272;49.226;8.108;2023-01-10T12:36:24;15.43;;;3.23;;
4519;SDS011;2272;49.226;8.108;2023-01-10T12:39:00;18.87;;;5.57;;
4519;SDS011;2272;49.226;8.108;2023-01-10T12:41:35;19.73;;;3.73;;
4519;SDS011;2272;49.226;8.108;2023-01-10T12:44:27;22.30;;;4.27;;
4519;SDS011;2272;49.226;8.108;2023-01-10T12:47:01;13.73;;;3.00;;
4519;SDS011;2272;49.226;8.108;2023-01-10T12:49:35;14.77;;;3.13;;
4519;SDS011;2272;49.226;8.108;2023-01-10T12:52:09;8.87;;;2.50;;
4519;SDS011;2272;49.226;8.108;2023-01-10T12:54:42;12.03;;;3.17;;
4519;SDS011;2272;49.226;8.108;2023-01-10T12:57:15;12.47;;;3.10;;
4519;SDS011;2272;49.226;8.108;2023-01-10T12:59:48;21.97;;;3.07;;
4519;SDS011;2272;49.226;8.108;2023-01-10T13:02:17;14.03;;;3.80;;
4519;SDS011;2272;49.226;8.108;2023-01-10T13:04:47;9.63;;;3.43;;
4519;SDS011;2272;49.226;8.108;2023-01-10T13:07:17;24.70;;;3.80;;
4519;SDS011;2272;49.226;8.108;2023-01-10T13:09:46;20.87;;;3.50;;
4519;SDS011;2272;49.226;8.108;2023-01-10T13:12:16;9.07;;;2.70;;
4519;SDS011;2272;49.226;8.108;2023-01-10T13:14:48;22.90;;;2.93;;
4519;SDS011;2272;49.226;8.108;2023-01-10T13:17:24;14.73;;;3.00;;
4519;SDS011;2272;49.226;8.108;2023-01-10T13:20:17;13.00;;;2.47;;
4519;SDS011;2272;49.226;8.108;2023-01-10T13:22:50;7.67;;;1.93;;
4519;SDS011;2272;49.226;8.108;2023-01-10T13:25:21;11.93;;;2.67;;
4519;SDS011;2272;49.226;8.108;2023-01-10T13:27:51;6.87;;;2.40;;
4519;SDS011;2272;49.226;8.108;2023-01-10T13:30:25;7.40;;;2.07;;
4519;SDS011;2272;49.226;8.108;2023-01-10T13:32:56;9.50;;;2.17;;
4519;SDS011;2272;49.226;8.108;2023-01-10T13:35:26;13.00;;;2.63;;
4519;SDS011;2272;49.226;8.108;2023-01-10T13:38:01;3.70;;;2.43;;
4519;SDS011;2272;49.226;8.108;2023-01-10T13:40:29;8.33;;;2.80;;
4519;SDS011;2272;49.226;8.108;2023-01-10T13:54:55;11.00;;;2.60;;
4519;SDS011;2272;49.226;8.108;2023-01-10T14:00:25;12.30;;;3.47;;
4519;SDS011;2272;49.226;8.108;2023-01-10T14:03:42;17.13;;;3.27;;
4519;SDS011;2272;49.226;8.108;2023-01-10T14:06:12;12.60;;;2.83;;
4519;SDS011;2272;49.226;8.108;2023-01-10T14:08:48;6.73;;;2.67;;
4519;SDS011;2272;49.226;8.108;2023-01-10T14:11:17;15.50;;;2.93;;
4519;SDS011;2272;49.226;8.108;2023-01-10T14:13:49;20.93;;;3.33;;
4519;SDS011;2272;49.226;8.108;2023-01-10T14:16:32;14.87;;;2.73;;
4519;SDS011;2272;49.226;8.108;2023-01-10T14:19:02;10.37;;;2.87;;
4519;SDS011;2272;49.226;8.108;2023-01-10T14:21:32;5.43;;;2.10;;
4519;SDS011;2272;49.226;8.108;2023-01-10T14:24:04;8.00;;;2.37;;
4519;SDS011;2272;49.226;8.108;2023-01-10T14:26:32;16.70;;;4.40;;
4519;SDS011;2272;49.226;8.108;2023-01-10T14:29:06;16.90;;;3.23;;
4519;SDS011;2272;49.226;8.108;2023-01-10T14:31:36;22.83;;;7.63;;
4519;SDS011;2272;49.226;8.108;2023-01-10T14:34:08;10.97;;;3.93;;
4519;SDS011;2272;49.226;8.108;2023-01-10T14:36:40;11.60;;;3.50;;
4519;SDS011;2272;49.226;8.108;2023-01-10T14:39:14;13.97;;;3.37;;
4519;SDS011;2272;49.226;8.108;2023-01-10T14:41:42;9.33;;;2.40;;
4519;SDS011;2272;49.226;8.108;2023-01-10T14:44:14;9.43;;;4.33;;
4519;SDS011;2272;49.226;8.108;2023-01-10T14:46:45;8.57;;;2.90;;
4519;SDS011;2272;49.226;8.108;2023-01-10T14:49:21;10.90;;;2.57;;
4519;SDS011;2272;49.226;8.108;2023-01-10T14:51:50;11.00;;;2.80;;
4519;SDS011;2272;49.226;8.108;2023-01-10T14:54:17;17.67;;;2.87;;
4519;SDS011;2272;49.226;8.108;2023-01-10T14:56:47;9.30;;;2.60;;
4519;SDS011;2272;49.226;8.108;2023-01-10T14:59:17;9.67;;;1.87;;
4519;SDS011;2272;49.226;8.108;2023-01-10T15:01:48;7.90;;;2.00;;
4519;SDS011;2272;49.226;8.108;2023-01-10T15:04:16;11.47;;;2.43;;
4519;SDS011;2272;49.226;8.108;2023-01-10T15:06:52;11.40;;;2.30;;
4519;SDS011;2272;49.226;8.108;2023-01-10T15:09:20;5.80;;;2.07;;
4519;SDS011;2272;49.226;8.108;2023-01-10T15:11:47;4.37;;;1.87;;
4519;SDS011;2272;49.226;8.108;2023-01-10T15:14:17;13.33;;;2.43;;
4519;SDS011;2272;49.226;8.108;2023-01-10T15:16:47;8.47;;;2.03;;
4519;SDS011;2272;49.226;8.108;2023-01-10T15:19:17;5.77;;;2.07;;
4519;SDS011;2272;49.226;8.108;2023-01-10T15:21:45;5.50;;;2.00;;
4519;SDS011;2272;49.226;8.108;2023-01-10T15:24:22;6.00;;;2.67;;
4519;SDS011;2272;49.226;8.108;2023-01-10T15:26:50;8.40;;;2.33;;
4519;SDS011;2272;49.226;8.108;2023-01-10T15:29:20;7.13;;;2.17;;
4519;SDS011;2272;49.226;8.108;2023-01-10T15:31:49;6.43;;;2.50;;
4519;SDS011;2272;49.226;8.108;2023-01-10T15:34:17;2.43;;;2.00;;
4519;SDS011;2272;49.226;8.108;2023-01-10T15:36:47;6.57;;;2.33;;
4519;SDS011;2272;49.226;8.108;2023-01-10T15:39:17;8.40;;;2.03;;
4519;SDS011;2272;49.226;8.108;2023-01-10T15:41:46;10.93;;;2.97;;
4519;SDS011;2272;49.226;8.108;2023-01-10T15:44:21;3.17;;;1.70;;